Time;durP1;ratioP1;P1;durP2;ratioP2;P2;SDS_P1;SDS_P2;PMS_P1;PMS_P2;Temp;Humidity;BMP_temperature;BMP_pressure;BME280_temperature;BME280_humidity;BME280_pressure;Samples;Min_cycle;Max_cycle;Signal;HPM_P1;HPM_P2
2022/11/08 00:03:44;;;;;;;;;;;;;;;16.50;56.87;101382.91;5058251;28;1143;-55
2022/11/08 00:14:21;;;;;;;;;;;;;;;16.03;56.57;101379.63;5057920;28;1184;-52
2022/11/08 00:16:46;;;;;;;;;;;;;;;16.03;56.69;101382.38;5058000;28;1135;-54
2022/11/08 00:19:12;;;;;;;;;;;;;;;17.54;54.53;101371.69;5055706;28;1124;-51
2022/11/08 00:21:37;;;;;;;;;;;;;;;16.72;56.18;101380.91;5057262;28;1140;-52
2022/11/08 00:24:03;;;;;;;;;;;;;;;16.38;56.38;101374.78;5057878;28;1230;-55
2022/11/08 00:26:28;;;;;;;;;;;;;;;16.11;56.57;101381.06;5057995;28;1909;-53
2022/11/08 00:28:54;;;;;;;;;;;;;;;15.96;56.58;101376.22;5039787;28;1022;-53
2022/11/08 00:31:19;;;;;;;;;;;;;;;17.37;54.98;101377.38;5056980;28;1132;-54
2022/11/08 00:33:44;;;;;;;;;;;;;;;17.04;55.46;101371.06;5057634;28;1191;-51
2022/11/08 00:36:10;;;;;;;;;;;;;;;16.46;56.49;101368.03;5056490;28;1176;-55
2022/11/08 00:38:35;;;;;;;;;;;;;;;16.22;56.60;101379.28;5057395;28;1140;-55
2022/11/08 00:41:01;;;;;;;;;;;;;;;16.11;56.58;101377.50;5057282;28;1226;-53
2022/11/08 00:43:26;;;;;;;;;;;;;;;17.06;55.63;101372.47;5056936;28;896;-52
2022/11/08 00:45:52;;;;;;;;;;;;;;;17.08;55.41;101369.44;5057511;28;1914;-54
2022/11/08 00:48:17;;;;;;;;;;;;;;;16.46;56.57;101371.59;5057331;28;1259;-53
2022/11/08 00:50:42;;;;;;;;;;;;;;;16.17;56.59;101360.00;5057125;28;1092;-54
2022/11/08 00:53:08;;;;;;;;;;;;;;;16.30;56.98;101370.59;5057555;28;1136;-53
2022/11/08 00:55:33;;;;;;;;;;;;;;;17.63;53.99;101364.63;5056983;28;871;-55
2022/11/08 00:57:59;;;;;;;;;;;;;;;16.66;56.35;101367.41;5056727;28;1108;-54
2022/11/08 01:00:24;;;;;;;;;;;;;;;16.37;56.33;101359.44;5057094;28;1136;-54
2022/11/08 01:03:17;;;;;;;;;;;;;;;16.16;55.85;101363.84;5056752;28;1179;-55
2022/11/08 01:05:38;;;;;;;;;;;;;;;16.76;56.40;101357.34;5056381;28;1973;-55
2022/11/08 01:08:03;;;;;;;;;;;;;;;17.23;55.08;101360.50;5046958;28;1054;-55
2022/11/08 01:10:29;;;;;;;;;;;;;;;16.47;56.35;101358.72;5056998;28;1194;-56
2022/11/08 01:12:54;;;;;;;;;;;;;;;16.24;56.43;101360.63;5056388;28;1113;-54
2022/11/08 01:15:20;;;;;;;;;;;;;;;16.11;56.32;101361.03;5056741;28;1104;-52
2022/11/08 01:17:45;;;;;;;;;;;;;;;16.07;56.86;101356.06;5056840;28;934;-50
2022/11/08 01:20:11;;;;;;;;;;;;;;;17.52;54.41;101346.41;5056646;28;1208;-51
2022/11/08 01:22:36;;;;;;;;;;;;;;;16.63;56.02;101344.03;5056568;28;1156;-51
2022/11/08 01:25:01;;;;;;;;;;;;;;;16.26;56.40;101350.25;5056395;28;1918;-49
2022/11/08 01:27:27;;;;;;;;;;;;;;;16.05;56.47;101357.41;5056640;28;1186;-54
2022/11/08 01:29:52;;;;;;;;;;;;;;;16.54;56.43;101359.34;5038848;28;1105;-50
2022/11/08 01:32:18;;;;;;;;;;;;;;;17.43;54.46;101360.66;5056220;28;1120;-52
2022/11/08 01:34:43;;;;;;;;;;;;;;;16.57;56.25;101367.03;5056172;28;1097;-54
2022/11/08 01:37:08;;;;;;;;;;;;;;;16.24;56.35;101360.63;5056612;28;1190;-55
2022/11/08 01:39:34;;;;;;;;;;;;;;;16.06;56.57;101357.16;5056617;28;1210;-53
2022/11/08 01:41:59;;;;;;;;;;;;;;;16.35;56.74;101361.59;5056366;28;1218;-55
2022/11/08 01:44:25;;;;;;;;;;;;;;;17.39;54.21;101362.28;5056152;28;1167;-52
2022/11/08 01:46:50;;;;;;;;;;;;;;;16.52;56.08;101373.31;5056128;28;1906;-55
2022/11/08 01:49:36;;;;;;;;;;;;;;;16.21;56.54;101367.47;5056239;28;1210;-49
2022/11/08 01:52:01;;;;;;;;;;;;;;;17.47;54.45;101360.94;5055824;28;1686;-53
2022/11/08 01:54:50;;;;;;;;;;;;;;;16.89;55.31;101355.28;5056228;28;1108;-53
2022/11/08 01:57:18;;;;;;;;;;;;;;;16.35;56.22;101356.91;5043008;28;1293;-54
2022/11/08 01:59:43;;;;;;;;;;;;;;;16.16;56.27;101350.97;5056302;28;1108;-55
2022/11/08 02:02:09;;;;;;;;;;;;;;;16.04;56.53;101356.56;5056013;28;1231;-50
2022/11/08 02:04:35;;;;;;;;;;;;;;;17.55;54.35;101351.38;5055893;28;1108;-51
2022/11/08 02:07:00;;;;;;;;;;;;;;;16.74;55.73;101356.75;5038192;28;1906;-53
2022/11/08 02:09:25;;;;;;;;;;;;;;;16.29;56.48;101349.72;5038928;28;1104;-51
2022/11/08 02:11:51;;;;;;;;;;;;;;;16.17;56.09;101358.13;5038406;28;1195;-53
2022/11/08 02:14:16;;;;;;;;;;;;;;;15.99;56.33;101359.25;5038068;28;1144;-52
2022/11/08 02:16:42;;;;;;;;;;;;;;;16.52;56.41;101362.34;5056177;28;1187;-53
2022/11/08 02:19:08;;;;;;;;;;;;;;;17.52;53.88;101357.41;5055946;28;1104;-48
2022/11/08 02:21:38;;;;;;;;;;;;;;;16.55;55.91;101363.72;5055880;28;1135;-53
2022/11/08 02:24:08;;;;;;;;;;;;;;;16.23;56.54;101364.50;5038136;28;1121;-54
2022/11/08 02:26:34;;;;;;;;;;;;;;;16.05;56.26;101365.66;5038107;28;1898;-54
2022/11/08 02:29:19;;;;;;;;;;;;;;;16.81;55.79;101369.47;5055720;28;1135;-53
2022/11/08 02:31:45;;;;;;;;;;;;;;;17.04;54.85;101369.16;5055742;28;1752;-53
2022/11/08 02:34:10;;;;;;;;;;;;;;;16.42;56.24;101363.06;5055566;28;1088;-52
2022/11/08 02:36:36;;;;;;;;;;;;;;;16.17;56.20;101365.50;5055989;28;1120;-54
2022/11/08 02:39:01;;;;;;;;;;;;;;;15.98;56.23;101360.34;5056103;28;1230;-54
2022/11/08 02:41:27;;;;;;;;;;;;;;;16.85;55.54;101360.44;5056108;28;1135;-50
2022/11/08 02:43:52;;;;;;;;;;;;;;;17.19;54.41;101365.69;5055714;28;861;-49
2022/11/08 02:46:18;;;;;;;;;;;;;;;16.46;56.28;101365.28;5055425;28;1904;-49
2022/11/08 02:48:43;;;;;;;;;;;;;;;16.20;56.11;101363.09;5055578;28;1128;-52
2022/11/08 02:51:09;;;;;;;;;;;;;;;16.08;56.54;101365.94;5055471;28;1128;-50
2022/11/08 02:53:34;;;;;;;;;;;;;;;17.56;53.86;101369.53;5055921;28;1132;-52
2022/11/08 02:55:59;;;;;;;;;;;;;;;16.62;55.72;101372.59;5054844;28;1156;-51
2022/11/08 02:58:26;;;;;;;;;;;;;;;16.24;56.17;101366.97;5055767;28;1151;-56
2022/11/08 03:00:52;;;;;;;;;;;;;;;16.10;55.97;101365.69;5059381;28;1120;-56
2022/11/08 03:03:17;;;;;;;;;;;;;;;17.09;55.16;101369.19;5059046;28;1156;-54
2022/11/08 03:05:43;;;;;;;;;;;;;;;16.99;54.85;101368.28;5040979;28;1902;-50
2022/11/08 03:08:08;;;;;;;;;;;;;;;16.43;55.80;101370.19;5059193;28;882;-53
2022/11/08 03:10:34;;;;;;;;;;;;;;;16.17;56.21;101370.97;5059455;28;1187;-51
2022/11/08 03:13:00;;;;;;;;;;;;;;;16.01;56.17;101372.72;5041527;28;1175;-50
2022/11/08 03:15:25;;;;;;;;;;;;;;;16.99;55.01;101371.84;5058896;28;1088;-53
2022/11/08 03:17:51;;;;;;;;;;;;;;;17.20;54.35;101377.53;5059219;28;1156;-49
2022/11/08 03:20:17;;;;;;;;;;;;;;;16.48;56.04;101377.66;5058713;28;841;-51
2022/11/08 03:22:42;;;;;;;;;;;;;;;16.21;56.05;101374.88;5059427;28;1148;-51
2022/11/08 03:25:08;;;;;;;;;;;;;;;16.23;56.46;101368.06;5058892;28;1972;-51
2022/11/08 03:27:33;;;;;;;;;;;;;;;17.53;53.76;101368.13;5058823;28;1187;-52
2022/11/08 03:29:59;;;;;;;;;;;;;;;16.58;55.54;101376.94;5059030;28;1262;-53
2022/11/08 03:32:24;;;;;;;;;;;;;;;16.23;56.28;101378.22;5058189;28;1202;-51
2022/11/08 03:34:50;;;;;;;;;;;;;;;16.08;56.00;101379.66;5058705;28;1104;-51
2022/11/08 03:37:15;;;;;;;;;;;;;;;15.96;56.16;101376.22;5058537;28;1148;-51
2022/11/08 03:39:40;;;;;;;;;;;;;;;17.33;54.07;101377.06;5058871;28;1164;-54
2022/11/08 03:42:06;;;;;;;;;;;;;;;16.79;55.38;101374.38;5058560;28;1139;-54
2022/11/08 03:44:32;;;;;;;;;;;;;;;16.34;55.98;101371.75;5049991;28;1151;-50
2022/11/08 03:46:58;;;;;;;;;;;;;;;16.07;56.14;101382.66;5057312;28;1981;-50
2022/11/08 03:49:23;;;;;;;;;;;;;;;17.44;54.01;101378.78;5057931;28;1127;-48
2022/11/08 03:51:49;;;;;;;;;;;;;;;16.82;55.11;101385.69;5058194;28;1116;-50
2022/11/08 03:54:14;;;;;;;;;;;;;;;16.38;55.74;101383.88;5058304;28;1144;-46
2022/11/08 03:56:39;;;;;;;;;;;;;;;16.15;56.06;101376.72;5057648;28;966;-51
2022/11/08 03:59:05;;;;;;;;;;;;;;;16.05;55.79;101377.44;5058059;28;1108;-48
2022/11/08 04:01:30;;;;;;;;;;;;;;;16.37;55.93;101376.72;5058104;28;1132;-52
2022/11/08 04:03:56;;;;;;;;;;;;;;;17.24;53.83;101382.22;5058174;28;1178;-51
2022/11/08 04:06:21;;;;;;;;;;;;;;;16.39;55.87;101379.19;5057319;28;2199;-50
2022/11/08 04:08:46;;;;;;;;;;;;;;;16.19;56.39;101377.06;5057638;28;1084;-52
2022/11/08 04:16:40;;;;;;;;;;;;;;;16.59;55.68;101373.94;5057293;28;1248;-52
2022/11/08 04:21:50;;;;;;;;;;;;;;;16.18;56.28;101378.13;5057026;28;1195;-52
2022/11/08 04:24:15;;;;;;;;;;;;;;;17.55;53.51;101379.69;5057366;28;1231;-51
2022/11/08 04:26:41;;;;;;;;;;;;;;;16.62;55.65;101383.56;5057050;28;1976;-47
2022/11/08 04:29:06;;;;;;;;;;;;;;;16.27;56.00;101386.75;5056487;28;1265;-50
2022/11/08 04:31:32;;;;;;;;;;;;;;;16.12;55.94;101380.00;5057324;28;1251;-50
2022/11/08 04:33:57;;;;;;;;;;;;;;;16.41;56.10;101377.88;5057552;28;1144;-54
2022/11/08 04:36:23;;;;;;;;;;;;;;;17.42;53.64;101378.22;5057111;28;2213;-50
2022/11/08 04:38:49;;;;;;;;;;;;;;;16.52;55.53;101377.97;5056542;28;1187;-48
2022/11/08 04:41:15;;;;;;;;;;;;;;;16.22;55.81;101385.59;5057222;28;1147;-50
2022/11/08 04:43:40;;;;;;;;;;;;;;;16.14;56.09;101383.28;5048522;28;823;-50
2022/11/08 04:46:07;;;;;;;;;;;;;;;17.71;53.11;101382.53;5056211;28;1921;-51
2022/11/08 04:48:32;;;;;;;;;;;;;;;16.75;55.21;101391.38;5056488;28;1072;-48
2022/11/08 04:51:02;;;;;;;;;;;;;;;16.38;55.82;101388.50;5057559;28;1219;-50
2022/11/08 04:53:27;;;;;;;;;;;;;;;16.12;56.10;101385.47;5057024;28;1186;-56
2022/11/08 04:55:57;;;;;;;;;;;;;;;16.03;56.00;101398.81;5056573;28;1147;-53
2022/11/08 04:58:23;;;;;;;;;;;;;;;17.41;53.96;101395.81;5056788;28;1352;-55
2022/11/08 05:00:48;;;;;;;;;;;;;;;16.67;55.41;101391.84;5056924;28;1359;-57
2022/11/08 05:03:14;;;;;;;;;;;;;;;16.28;56.25;101393.91;5057404;28;1195;-57
2022/11/08 05:05:39;;;;;;;;;;;;;;;16.10;56.12;101390.38;5042900;28;2599;-58
2022/11/08 05:08:06;;;;;;;;;;;;;;;16.31;56.09;101401.59;5056173;28;1135;-58
2022/11/08 05:10:31;;;;;;;;;;;;;;;17.56;53.36;101397.84;5056597;28;1037;-58
2022/11/08 05:12:57;;;;;;;;;;;;;;;16.63;55.49;101392.63;5056374;28;1159;-58
2022/11/08 05:15:22;;;;;;;;;;;;;;;16.25;56.00;101398.78;5056449;28;1093;-58
2022/11/08 05:17:48;;;;;;;;;;;;;;;16.08;56.17;101403.53;5056169;28;1104;-57
2022/11/08 05:25:45;;;;;;;;;;;;;;;16.60;55.39;101403.03;5056408;28;1955;-58
2022/11/08 05:28:11;;;;;;;;;;;;;;;16.25;56.01;101408.94;5038348;28;1227;-56
2022/11/08 05:30:36;;;;;;;;;;;;;;;16.07;56.16;101413.69;5056295;28;1132;-56
2022/11/08 05:33:01;;;;;;;;;;;;;;;16.99;55.12;101412.25;5055930;28;1190;-57
2022/11/08 05:35:27;;;;;;;;;;;;;;;17.00;54.76;101409.22;5055925;28;2334;-55
2022/11/08 05:37:52;;;;;;;;;;;;;;;16.37;55.96;101406.09;5055803;28;1186;-56
2022/11/08 05:40:18;;;;;;;;;;;;;;;16.18;56.10;101406.41;5056051;28;1202;-56
2022/11/08 05:42:43;;;;;;;;;;;;;;;16.07;55.79;101405.47;5056049;28;1095;-57
2022/11/08 05:45:09;;;;;;;;;;;;;;;16.94;54.87;101415.75;5055823;28;1898;-55
2022/11/08 05:47:34;;;;;;;;;;;;;;;17.00;54.54;101408.38;5037908;28;1220;-56
2022/11/08 05:50:00;;;;;;;;;;;;;;;16.36;56.08;101404.41;5055803;28;1155;-57
2022/11/08 05:52:25;;;;;;;;;;;;;;;16.15;56.10;101411.59;5055340;28;1132;-57
2022/11/08 05:54:52;;;;;;;;;;;;;;;16.47;55.86;101413.63;5056360;28;1124;-59
2022/11/08 05:57:17;;;;;;;;;;;;;;;17.51;53.24;101413.47;5055866;28;1009;-58
2022/11/08 05:59:43;;;;;;;;;;;;;;;16.63;55.62;101423.66;5055987;28;1151;-56
2022/11/08 06:02:08;;;;;;;;;;;;;;;16.28;55.85;101435.88;5054781;28;1164;-56
2022/11/08 06:04:33;;;;;;;;;;;;;;;16.09;55.93;101443.59;5055577;28;1259;-58
2022/11/08 06:06:59;;;;;;;;;;;;;;;16.17;55.97;101450.56;5054768;28;2307;-56
2022/11/08 06:09:24;;;;;;;;;;;;;;;17.50;53.37;101447.56;5055139;28;1239;-57
2022/11/08 06:11:50;;;;;;;;;;;;;;;16.59;55.25;101455.47;5055063;28;1231;-57
2022/11/08 06:14:15;;;;;;;;;;;;;;;16.28;56.01;101454.28;5054759;28;1302;-56
2022/11/08 06:16:40;;;;;;;;;;;;;;;16.06;56.03;101461.41;5055305;28;1211;-56
2022/11/08 06:19:06;;;;;;;;;;;;;;;15.96;55.87;101453.00;5054871;28;1163;-56
2022/11/08 06:21:31;;;;;;;;;;;;;;;16.85;55.12;101459.31;5054953;28;1183;-56
2022/11/08 06:23:57;;;;;;;;;;;;;;;17.27;54.01;101457.81;5054655;28;1235;-56
2022/11/08 06:26:22;;;;;;;;;;;;;;;16.52;55.41;101455.69;5055240;28;1917;-56
2022/11/08 06:28:48;;;;;;;;;;;;;;;16.24;55.72;101454.78;5055165;28;1286;-57
2022/11/08 06:31:13;;;;;;;;;;;;;;;16.11;55.81;101457.06;5054746;28;1239;-57
2022/11/08 06:33:38;;;;;;;;;;;;;;;17.72;53.34;101453.75;5054953;28;1164;-57
2022/11/08 06:36:05;;;;;;;;;;;;;;;16.98;53.85;101466.34;5058934;28;2361;-57
2022/11/08 06:38:30;;;;;;;;;;;;;;;16.52;53.01;101461.16;5059081;28;1183;-57
2022/11/08 06:40:59;;;;;;;;;;;;;;;16.29;51.45;101473.22;5059024;28;1224;-57
2022/11/08 06:43:24;;;;;;;;;;;;;;;16.10;50.56;101466.38;5058642;28;1117;-56
2022/11/08 06:45:50;;;;;;;;;;;;;;;15.99;49.83;101466.25;5058849;28;1964;-58
2022/11/08 06:48:15;;;;;;;;;;;;;;;16.80;52.04;101466.69;5059198;28;1282;-58
2022/11/08 06:50:41;;;;;;;;;;;;;;;16.82;52.93;101472.75;5058736;28;1183;-58
2022/11/08 06:53:07;;;;;;;;;;;;;;;18.16;52.91;101471.13;5057912;28;1290;-57
2022/11/08 06:55:32;;;;;;;;;;;;;;;17.43;53.35;101465.13;5058797;28;1320;-58
2022/11/08 06:57:58;;;;;;;;;;;;;;;16.90;52.32;101473.16;5058827;28;1227;-57
2022/11/08 07:00:24;;;;;;;;;;;;;;;16.71;50.76;101461.66;5058948;28;1128;-56
2022/11/08 07:02:59;;;;;;;;;;;;;;;16.72;50.82;101466.06;5059005;28;1135;-55
2022/11/08 07:05:24;;;;;;;;;;;;;;;16.88;51.92;101464.31;5058926;28;2374;-58
2022/11/08 07:07:52;;;;;;;;;;;;;;;16.53;50.81;101459.25;5058720;28;1156;-54
2022/11/08 07:10:18;;;;;;;;;;;;;;;16.35;49.30;101461.22;5058869;28;1183;-59
2022/11/08 07:12:44;;;;;;;;;;;;;;;17.15;50.45;101459.91;5058873;28;1152;-56
2022/11/08 07:15:09;;;;;;;;;;;;;;;16.54;50.65;101474.63;5058792;28;1132;-58
2022/11/08 07:17:35;;;;;;;;;;;;;;;16.47;49.33;101469.34;5058743;28;1143;-57
2022/11/08 07:20:00;;;;;;;;;;;;;;;16.62;50.05;101471.44;5057942;28;1088;-60
2022/11/08 07:22:26;;;;;;;;;;;;;;;16.80;50.90;101461.19;5058186;28;922;-55
2022/11/08 07:24:51;;;;;;;;;;;;;;;16.31;50.46;101464.72;5058265;28;1127;-55
2022/11/08 07:27:16;;;;;;;;;;;;;;;16.92;50.25;101459.16;5058645;28;1910;-55
2022/11/08 07:29:42;;;;;;;;;;;;;;;16.56;50.70;101458.72;5057930;28;1139;-58
2022/11/08 07:32:07;;;;;;;;;;;;;;;16.39;49.63;101469.78;5058194;28;1128;-56
2022/11/08 07:34:33;;;;;;;;;;;;;;;17.48;50.91;101467.06;5057769;28;947;-56
2022/11/08 07:36:58;;;;;;;;;;;;;;;16.74;50.59;101472.09;5058496;28;2380;-58
2022/11/08 07:39:23;;;;;;;;;;;;;;;16.43;49.89;101471.75;5058467;28;1155;-56
2022/11/08 07:41:49;;;;;;;;;;;;;;;16.46;48.48;101483.31;5057991;28;1190;-56
2022/11/08 07:44:14;;;;;;;;;;;;;;;17.15;50.58;101473.66;5057566;28;1167;-56
2022/11/08 07:46:40;;;;;;;;;;;;;;;16.63;50.32;101475.00;5057216;28;1905;-55
2022/11/08 07:49:05;;;;;;;;;;;;;;;16.47;48.94;101487.72;5057634;28;1274;-57
2022/11/08 07:51:31;;;;;;;;;;;;;;;17.09;50.17;101489.25;5057974;28;1164;-56
2022/11/08 07:53:56;;;;;;;;;;;;;;;16.64;50.33;101484.91;5057933;28;1319;-56
2022/11/08 07:56:21;;;;;;;;;;;;;;;16.77;50.02;101492.75;5057458;28;1207;-55
2022/11/08 07:58:47;;;;;;;;;;;;;;;17.44;50.63;101486.00;5057267;28;1247;-58
2022/11/08 08:01:12;;;;;;;;;;;;;;;16.73;50.53;101484.19;5047918;28;1199;-55
2022/11/08 08:03:38;;;;;;;;;;;;;;;16.56;49.25;101488.94;5042326;28;1318;-57
2022/11/08 08:06:03;;;;;;;;;;;;;;;16.46;48.72;101494.28;5041245;28;1930;-58
2022/11/08 08:08:29;;;;;;;;;;;;;;;17.16;49.61;101494.56;5040422;28;1349;-56
2022/11/08 08:10:58;;;;;;;;;;;;;;;16.56;49.73;101488.94;5042940;28;1437;-54
2022/11/08 08:13:24;;;;;;;;;;;;;;;17.16;49.73;101489.06;5047572;28;1289;-56
2022/11/08 08:15:49;;;;;;;;;;;;;;;16.99;50.83;101481.75;5056860;28;1207;-58
2022/11/08 08:18:16;;;;;;;;;;;;;;;16.73;49.66;101486.94;5057036;28;1235;-60
2022/11/08 08:20:42;;;;;;;;;;;;;;;16.47;49.11;101480.31;5055431;28;1445;-59
2022/11/08 08:23:07;;;;;;;;;;;;;;;16.69;49.34;101491.28;5057111;28;934;-58
2022/11/08 08:25:33;;;;;;;;;;;;;;;16.80;49.97;101485.91;5057247;28;1910;-58
2022/11/08 08:27:59;;;;;;;;;;;;;;;16.52;48.83;101485.88;5057280;28;1190;-58
2022/11/08 08:30:25;;;;;;;;;;;;;;;16.45;48.17;101489.88;5057300;28;1211;-59
2022/11/08 08:32:50;;;;;;;;;;;;;;;17.30;48.98;101486.72;5057476;28;1186;-59
2022/11/08 08:35:16;;;;;;;;;;;;;;;16.83;50.08;101472.50;5057158;28;927;-58
2022/11/08 08:37:41;;;;;;;;;;;;;;;16.62;49.27;101473.34;5056216;28;1171;-57
2022/11/08 08:40:07;;;;;;;;;;;;;;;17.31;49.60;101483.72;5057131;28;1482;-58
2022/11/08 08:42:33;;;;;;;;;;;;;;;16.82;49.61;101470.00;5057039;28;1175;-58
2022/11/08 08:44:58;;;;;;;;;;;;;;;16.46;49.11;101483.31;5056836;28;1120;-56
2022/11/08 08:47:24;;;;;;;;;;;;;;;16.46;48.25;101475.09;5056866;28;1975;-58
2022/11/08 08:49:49;;;;;;;;;;;;;;;16.32;47.66;101475.44;5057442;28;1151;-53
2022/11/08 08:52:15;;;;;;;;;;;;;;;16.79;48.68;101478.75;5056449;28;1179;-58
2022/11/08 08:54:40;;;;;;;;;;;;;;;16.90;49.34;101475.03;5056233;28;1434;-57
2022/11/08 08:57:05;;;;;;;;;;;;;;;16.56;48.72;101467.81;5055709;28;1175;-57
2022/11/08 08:59:31;;;;;;;;;;;;;;;16.40;47.99;101486.00;5056441;28;961;-57
2022/11/08 09:01:58;;;;;;;;;;;;;;;17.18;49.52;101473.97;5056784;28;1141;-55
2022/11/08 09:04:24;;;;;;;;;;;;;;;16.64;49.38;101472.00;5056905;28;1144;-56
2022/11/08 09:06:49;;;;;;;;;;;;;;;16.54;48.25;101469.16;5038453;28;2259;-55
2022/11/08 09:09:15;;;;;;;;;;;;;;;16.39;47.44;101462.38;5056677;28;1175;-56
2022/11/08 09:11:40;;;;;;;;;;;;;;;16.31;47.23;101464.72;5056848;28;924;-56
2022/11/08 09:14:05;;;;;;;;;;;;;;;17.19;48.42;101458.31;5056601;28;1143;-56
2022/11/08 09:16:31;;;;;;;;;;;;;;;16.64;48.76;101452.78;5056700;28;1183;-57
2022/11/08 09:18:56;;;;;;;;;;;;;;;16.62;48.90;101448.63;5056374;28;1175;-58
2022/11/08 09:21:22;;;;;;;;;;;;;;;17.13;49.22;101451.94;5056733;28;1163;-58
2022/11/08 09:23:47;;;;;;;;;;;;;;;16.74;49.09;101447.38;5047126;28;1009;-60
2022/11/08 09:26:13;;;;;;;;;;;;;;;16.55;48.50;101432.34;5037179;28;1961;-60
2022/11/08 09:28:38;;;;;;;;;;;;;;;17.56;48.77;101441.84;5056141;28;1143;-59
2022/11/08 09:31:04;;;;;;;;;;;;;;;16.86;49.58;101440.94;5056564;28;1159;-58
2022/11/08 09:33:30;;;;;;;;;;;;;;;16.65;48.56;101437.97;5056332;28;1182;-58
2022/11/08 09:35:56;;;;;;;;;;;;;;;16.50;47.79;101432.31;5056197;28;975;-56
2022/11/08 09:38:22;;;;;;;;;;;;;;;17.20;49.05;101446.22;5038297;28;1330;-56
2022/11/08 09:40:50;;;;;;;;;;;;;;;16.62;49.07;101435.75;5053988;28;1215;-59
2022/11/08 09:43:35;;;;;;;;;;;;;;;16.53;48.36;101434.53;5026482;28;1357;-56
2022/11/08 09:46:00;;;;;;;;;;;;;;;17.05;48.34;101441.41;5033911;28;1988;-58
2022/11/08 09:48:39;;;;;;;;;;;;;;;16.72;49.01;101433.09;5040984;28;1341;-58
2022/11/08 09:51:14;;;;;;;;;;;;;;;17.72;49.02;101434.50;5039734;28;1206;-58
2022/11/08 09:53:43;;;;;;;;;;;;;;;17.77;49.89;101437.31;5055701;28;1195;-59
2022/11/08 09:56:12;;;;;;;;;;;;;;;17.03;49.79;101424.38;5037589;28;1303;-57
2022/11/08 09:59:01;;;;;;;;;;;;;;;16.90;48.75;101433.84;5055590;28;1132;-55
2022/11/08 10:01:30;;;;;;;;;;;;;;;17.04;49.08;101428.75;4998719;28;1329;-53
2022/11/08 10:03:56;;;;;;;;;;;;;;;16.99;49.72;101424.06;5034978;28;1177;-54
2022/11/08 10:06:32;;;;;;;;;;;;;;;16.76;48.75;101427.94;5037937;28;1910;-55
2022/11/08 10:08:59;;;;;;;;;;;;;;;16.59;47.98;101417.03;5042623;28;1124;-56
2022/11/08 10:11:41;;;;;;;;;;;;;;;16.72;47.98;101424.88;5055688;28;926;-55
2022/11/08 10:14:13;;;;;;;;;;;;;;;16.89;49.00;101422.03;5044160;28;1167;-56
2022/11/08 10:16:54;;;;;;;;;;;;;;;16.63;48.31;101420.09;5044879;28;1147;-59
2022/11/08 10:19:33;;;;;;;;;;;;;;;16.49;47.69;101417.72;5061852;28;1222;-58
2022/11/08 10:22:04;;;;;;;;;;;;;;;16.31;47.45;101418.91;5062444;28;1283;-56
2022/11/08 10:24:36;;;;;;;;;;;;;;;17.07;48.04;101423.59;5062278;28;1384;-58
2022/11/08 10:27:02;;;;;;;;;;;;;;;16.79;48.94;101426.56;5062250;28;1913;-55
2022/11/08 10:29:27;;;;;;;;;;;;;;;16.57;48.17;101419.22;5062175;28;1143;-55
2022/11/08 10:32:19;;;;;;;;;;;;;;;17.50;48.49;101420.06;5062353;28;1203;-58
2022/11/08 10:34:53;;;;;;;;;;;;;;;16.69;49.02;101417.16;5058416;28;1269;-57
2022/11/08 10:37:18;;;;;;;;;;;;;;;16.56;48.09;101412.03;5044569;28;1172;-58
2022/11/08 10:39:54;;;;;;;;;;;;;;;17.22;48.66;101411.06;5044383;28;1129;-58
2022/11/08 10:42:24;;;;;;;;;;;;;;;16.72;48.77;101415.81;5062408;28;1202;-58
2022/11/08 10:44:50;;;;;;;;;;;;;;;16.54;48.14;101415.06;5062188;28;1163;-57
2022/11/08 10:47:18;;;;;;;;;;;;;;;16.37;47.46;101409.66;5061759;28;1972;-57
2022/11/08 10:49:43;;;;;;;;;;;;;;;17.60;48.12;101403.66;5061899;28;1167;-59
2022/11/08 10:52:15;;;;;;;;;;;;;;;16.91;48.64;101414.38;5062303;28;1144;-58
2022/11/08 10:54:44;;;;;;;;;;;;;;;16.54;48.26;101404.06;5062111;28;1192;-55
2022/11/08 10:57:13;;;;;;;;;;;;;;;16.57;47.50;101408.22;5061411;28;1298;-53
2022/11/08 10:59:38;;;;;;;;;;;;;;;17.14;48.74;101406.03;5062114;28;850;-56
2022/11/08 11:02:15;;;;;;;;;;;;;;;16.59;48.75;101400.53;5061853;28;1163;-55
2022/11/08 11:04:40;;;;;;;;;;;;;;;16.51;47.85;101401.00;5044222;28;1105;-55
2022/11/08 11:07:24;;;;;;;;;;;;;;;16.42;47.34;101408.88;5061917;28;1909;-53
2022/11/08 11:09:50;;;;;;;;;;;;;;;17.05;48.17;101398.25;5062268;28;1219;-53
2022/11/08 11:12:15;;;;;;;;;;;;;;;16.81;49.01;101407.91;5061243;28;1211;-52
2022/11/08 11:14:40;;;;;;;;;;;;;;;16.60;48.01;101399.47;5062202;28;1175;-55
2022/11/08 11:17:16;;;;;;;;;;;;;;;16.44;47.51;101398.47;5062138;28;1187;-56
2022/11/08 11:19:51;;;;;;;;;;;;;;;17.43;48.50;101395.53;5059527;28;1136;-55
2022/11/08 11:22:16;;;;;;;;;;;;;;;16.81;49.06;101402.44;5039760;28;1377;-54
2022/11/08 11:24:46;;;;;;;;;;;;;;;16.50;48.52;101394.69;5039777;28;1221;-55
2022/11/08 11:27:19;;;;;;;;;;;;;;;16.50;47.66;101396.63;5057132;28;1909;-55
2022/11/08 11:29:44;;;;;;;;;;;;;;;17.21;48.59;101385.50;5040201;28;1411;-50
2022/11/08 11:32:28;;;;;;;;;;;;;;;16.69;48.76;101391.59;5058400;28;1166;-53
2022/11/08 11:34:55;;;;;;;;;;;;;;;16.50;48.07;101391.13;5057280;28;994;-53
2022/11/08 11:37:23;;;;;;;;;;;;;;;16.39;47.23;101385.50;5056951;28;1072;-52
2022/11/08 11:40:07;;;;;;;;;;;;;;;16.26;47.02;101383.19;5057531;28;1291;-54
2022/11/08 11:42:33;;;;;;;;;;;;;;;17.23;48.28;101382.47;5051641;28;1239;-54
2022/11/08 11:45:05;;;;;;;;;;;;;;;16.54;48.57;101384.03;5057646;28;1232;-49
2022/11/08 11:47:32;;;;;;;;;;;;;;;16.90;48.63;101377.00;5039454;28;1975;-55
2022/11/08 11:50:09;;;;;;;;;;;;;;;16.93;48.94;101379.22;5053282;28;1092;-52
2022/11/08 11:52:35;;;;;;;;;;;;;;;16.56;48.77;101385.44;5039429;28;1167;-51
2022/11/08 11:55:00;;;;;;;;;;;;;;;16.52;47.81;101377.97;5040112;28;1318;-53
2022/11/08 11:57:29;;;;;;;;;;;;;;;16.49;46.96;101378.47;5057701;28;1112;-51
2022/11/08 11:59:58;;;;;;;;;;;;;;;17.37;47.92;101378.19;5057617;28;1238;-52
2022/11/08 12:02:32;;;;;;;;;;;;;;;16.70;48.79;101385.81;5039706;28;1336;-53
2022/11/08 12:05:03;;;;;;;;;;;;;;;16.51;47.94;101377.13;5057789;28;1132;-50
2022/11/08 12:07:29;;;;;;;;;;;;;;;16.39;47.35;101377.28;5057815;28;1975;-52
2022/11/08 12:10:13;;;;;;;;;;;;;;;16.26;47.06;101369.47;5040402;28;1140;-47
2022/11/08 12:12:38;;;;;;;;;;;;;;;17.30;48.07;101380.34;5057419;28;1159;-51
2022/11/08 12:15:04;;;;;;;;;;;;;;;16.70;48.75;101382.25;5057757;28;1104;-50
2022/11/08 12:17:33;;;;;;;;;;;;;;;16.42;48.19;101382.28;5057755;28;1218;-53
2022/11/08 12:20:17;;;;;;;;;;;;;;;16.32;47.28;101379.41;5039545;28;1163;-50
2022/11/08 12:22:49;;;;;;;;;;;;;;;16.99;48.50;101371.84;5058115;28;1163;-47
2022/11/08 12:25:17;;;;;;;;;;;;;;;18.68;44.43;101379.34;5051004;28;2059;-50
2022/11/08 12:27:52;;;;;;;;;;;;;;;17.70;48.01;101381.69;5056936;28;2186;-51
2022/11/08 12:30:18;;;;;;;;;;;;;;;17.14;48.45;101375.81;5039234;28;1307;-53
2022/11/08 12:32:44;;;;;;;;;;;;;;;16.89;47.62;101380.00;5038055;28;1290;-47
2022/11/08 12:35:19;;;;;;;;;;;;;;;16.73;47.18;101385.34;5053859;28;1238;-49
2022/11/08 12:37:44;;;;;;;;;;;;;;;16.64;46.77;101381.38;5056715;28;1302;-50
2022/11/08 12:40:15;;;;;;;;;;;;;;;16.53;46.64;101374.13;5056770;28;1212;-53
2022/11/08 12:42:47;;;;;;;;;;;;;;;17.38;47.77;101379.84;5056702;28;1143;-52
2022/11/08 12:45:15;;;;;;;;;;;;;;;16.81;47.97;101375.78;5056637;28;1231;-50
2022/11/08 12:47:44;;;;;;;;;;;;;;;18.15;48.22;101376.72;5038709;28;1279;-49
2022/11/08 12:50:15;;;;;;;;;;;;;;;17.99;49.33;101384.06;5057110;28;1247;-47
2022/11/08 12:52:53;;;;;;;;;;;;;;;17.16;49.63;101368.16;5057128;28;1207;-55
2022/11/08 12:55:21;;;;;;;;;;;;;;;16.99;48.45;101371.84;5056321;28;1163;-52
2022/11/08 12:57:47;;;;;;;;;;;;;;;16.87;47.72;101379.41;5038814;28;1230;-50
2022/11/08 13:00:16;;;;;;;;;;;;;;;16.71;47.37;101376.50;5056398;28;1318;-50
2022/11/08 13:02:42;;;;;;;;;;;;;;;16.67;46.52;101380.88;5038641;28;1270;-48
2022/11/08 13:05:10;;;;;;;;;;;;;;;16.58;46.32;101387.94;5050386;28;1183;-47
2022/11/08 13:07:47;;;;;;;;;;;;;;;17.03;47.44;101383.97;5022265;28;1975;-51
2022/11/08 13:10:20;;;;;;;;;;;;;;;16.95;48.29;101386.38;5048230;28;1274;-51
2022/11/08 13:13:01;;;;;;;;;;;;;;;16.75;47.35;101388.63;5056781;28;1183;-49